sensor_id;sensor_type;location;lat;lon;timestamp;P1;durP1;ratioP1;P2;durP2;ratioP2
49842;SDS011;55559;48.898;9.184;2023-04-06T00:01:18;20.73;;;9.63;;
49842;SDS011;55559;48.898;9.184;2023-04-06T00:03:45;19.67;;;9.90;;
49842;SDS011;55559;48.898;9.184;2023-04-06T00:06:13;18.55;;;9.75;;
49842;SDS011;55559;48.898;9.184;2023-04-06T00:08:41;22.17;;;11.27;;
49842;SDS011;55559;48.898;9.184;2023-04-06T00:11:08;20.77;;;9.75;;
49842;SDS011;55559;48.898;9.184;2023-04-06T00:13:36;23.15;;;11.77;;
49842;SDS011;55559;48.898;9.184;2023-04-06T00:16:03;19.00;;;9.35;;
49842;SDS011;55559;48.898;9.184;2023-04-06T00:18:33;22.30;;;11.38;;
49842;SDS011;55559;48.898;9.184;2023-04-06T00:21:01;20.05;;;11.20;;
49842;SDS011;55559;48.898;9.184;2023-04-06T00:23:28;16.67;;;10.43;;
49842;SDS011;55559;48.898;9.184;2023-04-06T00:25:56;20.55;;;9.95;;
49842;SDS011;55559;48.898;9.184;2023-04-06T00:28:23;16.65;;;10.57;;
49842;SDS011;55559;48.898;9.184;2023-04-06T00:30:51;18.17;;;9.95;;
49842;SDS011;55559;48.898;9.184;2023-04-06T00:33:21;18.38;;;9.98;;
49842;SDS011;55559;48.898;9.184;2023-04-06T00:35:50;19.83;;;12.13;;
49842;SDS011;55559;48.898;9.184;2023-04-06T00:38:18;19.35;;;10.75;;
49842;SDS011;55559;48.898;9.184;2023-04-06T00:40:46;17.90;;;10.48;;
49842;SDS011;55559;48.898;9.184;2023-04-06T00:43:14;23.33;;;10.43;;
49842;SDS011;55559;48.898;9.184;2023-04-06T00:45:41;19.88;;;10.65;;
49842;SDS011;55559;48.898;9.184;2023-04-06T00:48:10;15.75;;;10.45;;
49842;SDS011;55559;48.898;9.184;2023-04-06T00:50:37;17.80;;;9.75;;
49842;SDS011;55559;48.898;9.184;2023-04-06T00:53:07;21.40;;;10.35;;
49842;SDS011;55559;48.898;9.184;2023-04-06T00:55:34;20.88;;;10.63;;
49842;SDS011;55559;48.898;9.184;2023-04-06T00:58:02;23.63;;;11.50;;
49842;SDS011;55559;48.898;9.184;2023-04-06T01:00:38;22.17;;;11.38;;
49842;SDS011;55559;48.898;9.184;2023-04-06T01:03:12;20.02;;;11.15;;
49842;SDS011;55559;48.898;9.184;2023-04-06T01:05:42;14.20;;;9.10;;
49842;SDS011;55559;48.898;9.184;2023-04-06T01:08:22;19.50;;;10.55;;
49842;SDS011;55559;48.898;9.184;2023-04-06T01:10:54;22.42;;;10.27;;
49842;SDS011;55559;48.898;9.184;2023-04-06T01:13:27;17.10;;;9.80;;
49842;SDS011;55559;48.898;9.184;2023-04-06T01:15:59;22.85;;;10.82;;
49842;SDS011;55559;48.898;9.184;2023-04-06T01:18:35;16.33;;;10.40;;
49842;SDS011;55559;48.898;9.184;2023-04-06T01:21:15;22.35;;;10.65;;
49842;SDS011;55559;48.898;9.184;2023-04-06T01:24:10;16.42;;;10.38;;
49842;SDS011;55559;48.898;9.184;2023-04-06T01:26:58;20.33;;;9.10;;
49842;SDS011;55559;48.898;9.184;2023-04-06T01:29:32;17.17;;;10.60;;
49842;SDS011;55559;48.898;9.184;2023-04-06T01:32:02;20.70;;;11.15;;
49842;SDS011;55559;48.898;9.184;2023-04-06T01:34:34;17.80;;;10.53;;
49842;SDS011;55559;48.898;9.184;2023-04-06T01:37:04;20.08;;;10.57;;
49842;SDS011;55559;48.898;9.184;2023-04-06T01:39:33;17.88;;;11.68;;
49842;SDS011;55559;48.898;9.184;2023-04-06T01:42:05;25.27;;;11.77;;
49842;SDS011;55559;48.898;9.184;2023-04-06T01:44:34;21.83;;;10.48;;
49842;SDS011;55559;48.898;9.184;2023-04-06T01:47:08;21.65;;;10.80;;
49842;SDS011;55559;48.898;9.184;2023-04-06T01:49:36;19.02;;;10.82;;
49842;SDS011;55559;48.898;9.184;2023-04-06T01:52:04;16.38;;;10.50;;
49842;SDS011;55559;48.898;9.184;2023-04-06T01:54:35;16.13;;;9.45;;
49842;SDS011;55559;48.898;9.184;2023-04-06T01:57:10;20.30;;;10.80;;
49842;SDS011;55559;48.898;9.184;2023-04-06T01:59:45;13.13;;;9.15;;
49842;SDS011;55559;48.898;9.184;2023-04-06T02:02:20;10.75;;;7.13;;
49842;SDS011;55559;48.898;9.184;2023-04-06T02:05:01;12.77;;;7.85;;
49842;SDS011;55559;48.898;9.184;2023-04-06T02:07:29;18.00;;;8.38;;
49842;SDS011;55559;48.898;9.184;2023-04-06T02:09:59;15.32;;;6.97;;
49842;SDS011;55559;48.898;9.184;2023-04-06T02:12:34;12.20;;;6.65;;
49842;SDS011;55559;48.898;9.184;2023-04-06T02:15:03;13.40;;;7.05;;
49842;SDS011;55559;48.898;9.184;2023-04-06T02:17:31;19.48;;;6.90;;
49842;SDS011;55559;48.898;9.184;2023-04-06T02:19:59;14.40;;;7.15;;
49842;SDS011;55559;48.898;9.184;2023-04-06T02:22:26;16.73;;;7.07;;
49842;SDS011;55559;48.898;9.184;2023-04-06T02:24:54;17.40;;;6.88;;
49842;SDS011;55559;48.898;9.184;2023-04-06T02:27:23;12.73;;;6.95;;
49842;SDS011;55559;48.898;9.184;2023-04-06T02:29:50;13.88;;;6.95;;
49842;SDS011;55559;48.898;9.184;2023-04-06T02:32:19;14.93;;;7.82;;
49842;SDS011;55559;48.898;9.184;2023-04-06T02:34:48;15.73;;;7.85;;
49842;SDS011;55559;48.898;9.184;2023-04-06T02:37:18;15.27;;;8.60;;
49842;SDS011;55559;48.898;9.184;2023-04-06T02:39:45;13.68;;;7.88;;
49842;SDS011;55559;48.898;9.184;2023-04-06T02:42:14;12.45;;;7.88;;
49842;SDS011;55559;48.898;9.184;2023-04-06T02:44:44;13.90;;;8.13;;
49842;SDS011;55559;48.898;9.184;2023-04-06T02:47:13;15.20;;;8.30;;
49842;SDS011;55559;48.898;9.184;2023-04-06T02:49:45;22.05;;;8.07;;
49842;SDS011;55559;48.898;9.184;2023-04-06T02:52:13;14.48;;;8.20;;
49842;SDS011;55559;48.898;9.184;2023-04-06T02:54:43;13.25;;;8.20;;
49842;SDS011;55559;48.898;9.184;2023-04-06T02:57:12;15.88;;;8.38;;
49842;SDS011;55559;48.898;9.184;2023-04-06T02:59:44;14.43;;;8.20;;
49842;SDS011;55559;48.898;9.184;2023-04-06T03:02:20;19.77;;;9.38;;
49842;SDS011;55559;48.898;9.184;2023-04-06T03:04:48;20.02;;;10.57;;
49842;SDS011;55559;48.898;9.184;2023-04-06T03:07:22;17.20;;;10.02;;
49842;SDS011;55559;48.898;9.184;2023-04-06T03:09:50;23.58;;;9.07;;
49842;SDS011;55559;48.898;9.184;2023-04-06T03:12:17;17.92;;;9.43;;
49842;SDS011;55559;48.898;9.184;2023-04-06T03:15:07;17.50;;;9.52;;
49842;SDS011;55559;48.898;9.184;2023-04-06T03:17:38;20.15;;;9.98;;
49842;SDS011;55559;48.898;9.184;2023-04-06T03:20:12;21.35;;;11.27;;
49842;SDS011;55559;48.898;9.184;2023-04-06T03:22:40;18.35;;;10.52;;
49842;SDS011;55559;48.898;9.184;2023-04-06T03:25:11;22.55;;;10.98;;
49842;SDS011;55559;48.898;9.184;2023-04-06T03:27:42;21.75;;;10.93;;
49842;SDS011;55559;48.898;9.184;2023-04-06T03:30:18;16.17;;;10.25;;
49842;SDS011;55559;48.898;9.184;2023-04-06T03:32:45;26.77;;;11.45;;
49842;SDS011;55559;48.898;9.184;2023-04-06T03:35:13;16.17;;;9.15;;
49842;SDS011;55559;48.898;9.184;2023-04-06T03:37:40;16.90;;;9.20;;
49842;SDS011;55559;48.898;9.184;2023-04-06T03:40:09;23.23;;;10.02;;
49842;SDS011;55559;48.898;9.184;2023-04-06T03:42:37;16.83;;;10.48;;
49842;SDS011;55559;48.898;9.184;2023-04-06T03:45:10;17.90;;;9.73;;
49842;SDS011;55559;48.898;9.184;2023-04-06T03:47:46;18.30;;;10.00;;
49842;SDS011;55559;48.898;9.184;2023-04-06T03:50:14;16.17;;;10.20;;
49842;SDS011;55559;48.898;9.184;2023-04-06T03:52:43;22.13;;;10.55;;
49842;SDS011;55559;48.898;9.184;2023-04-06T03:55:11;19.50;;;10.25;;
49842;SDS011;55559;48.898;9.184;2023-04-06T03:57:38;24.42;;;11.70;;
49842;SDS011;55559;48.898;9.184;2023-04-06T04:00:06;18.02;;;11.38;;
49842;SDS011;55559;48.898;9.184;2023-04-06T04:02:40;20.42;;;10.20;;
49842;SDS011;55559;48.898;9.184;2023-04-06T04:05:10;23.30;;;11.40;;
49842;SDS011;55559;48.898;9.184;2023-04-06T04:07:37;26.83;;;11.13;;
49842;SDS011;55559;48.898;9.184;2023-04-06T04:10:07;21.08;;;11.02;;
49842;SDS011;55559;48.898;9.184;2023-04-06T04:12:35;29.17;;;11.68;;
49842;SDS011;55559;48.898;9.184;2023-04-06T04:15:02;22.13;;;11.10;;
49842;SDS011;55559;48.898;9.184;2023-04-06T04:17:30;18.77;;;10.30;;
49842;SDS011;55559;48.898;9.184;2023-04-06T04:19:58;22.58;;;11.57;;
49842;SDS011;55559;48.898;9.184;2023-04-06T04:22:28;15.52;;;9.77;;
49842;SDS011;55559;48.898;9.184;2023-04-06T04:24:55;21.90;;;11.52;;
49842;SDS011;55559;48.898;9.184;2023-04-06T04:27:25;21.17;;;11.43;;
49842;SDS011;55559;48.898;9.184;2023-04-06T04:29:52;17.80;;;10.13;;
49842;SDS011;55559;48.898;9.184;2023-04-06T04:32:21;21.88;;;11.57;;
49842;SDS011;55559;48.898;9.184;2023-04-06T04:34:49;18.55;;;10.15;;
49842;SDS011;55559;48.898;9.184;2023-04-06T04:37:31;15.32;;;10.02;;
49842;SDS011;55559;48.898;9.184;2023-04-06T04:40:00;19.17;;;11.40;;
49842;SDS011;55559;48.898;9.184;2023-04-06T04:42:31;20.33;;;12.40;;
49842;SDS011;55559;48.898;9.184;2023-04-06T04:45:00;19.75;;;12.68;;
49842;SDS011;55559;48.898;9.184;2023-04-06T04:47:37;29.25;;;13.15;;
49842;SDS011;55559;48.898;9.184;2023-04-06T04:50:06;26.23;;;12.13;;
49842;SDS011;55559;48.898;9.184;2023-04-06T04:52:39;22.38;;;11.55;;
49842;SDS011;55559;48.898;9.184;2023-04-06T04:55:20;17.63;;;11.55;;
49842;SDS011;55559;48.898;9.184;2023-04-06T04:57:52;27.73;;;11.98;;
49842;SDS011;55559;48.898;9.184;2023-04-06T05:00:26;21.52;;;11.10;;
49842;SDS011;55559;48.898;9.184;2023-04-06T05:02:56;22.45;;;11.57;;
49842;SDS011;55559;48.898;9.184;2023-04-06T05:05:33;25.33;;;13.23;;
49842;SDS011;55559;48.898;9.184;2023-04-06T05:08:04;25.77;;;11.57;;
49842;SDS011;55559;48.898;9.184;2023-04-06T05:10:40;25.02;;;13.25;;
49842;SDS011;55559;48.898;9.184;2023-04-06T05:13:08;30.67;;;11.90;;
49842;SDS011;55559;48.898;9.184;2023-04-06T05:15:36;21.23;;;10.23;;
49842;SDS011;55559;48.898;9.184;2023-04-06T05:18:17;31.38;;;11.25;;
49842;SDS011;55559;48.898;9.184;2023-04-06T05:20:49;27.63;;;11.75;;
49842;SDS011;55559;48.898;9.184;2023-04-06T05:23:22;25.35;;;10.95;;
49842;SDS011;55559;48.898;9.184;2023-04-06T05:25:51;21.58;;;10.65;;
49842;SDS011;55559;48.898;9.184;2023-04-06T05:28:21;24.05;;;12.15;;
49842;SDS011;55559;48.898;9.184;2023-04-06T05:30:49;21.20;;;11.45;;
49842;SDS011;55559;48.898;9.184;2023-04-06T05:33:17;21.45;;;12.00;;
49842;SDS011;55559;48.898;9.184;2023-04-06T05:36:08;23.38;;;11.95;;
49842;SDS011;55559;48.898;9.184;2023-04-06T05:38:41;23.98;;;11.70;;
49842;SDS011;55559;48.898;9.184;2023-04-06T05:41:41;22.10;;;11.57;;
49842;SDS011;55559;48.898;9.184;2023-04-06T05:44:10;21.90;;;11.27;;
49842;SDS011;55559;48.898;9.184;2023-04-06T05:46:41;23.48;;;12.07;;
49842;SDS011;55559;48.898;9.184;2023-04-06T05:49:13;21.83;;;11.45;;
49842;SDS011;55559;48.898;9.184;2023-04-06T05:51:41;20.08;;;10.95;;
49842;SDS011;55559;48.898;9.184;2023-04-06T05:54:10;19.77;;;10.68;;
49842;SDS011;55559;48.898;9.184;2023-04-06T05:56:38;22.05;;;10.57;;
49842;SDS011;55559;48.898;9.184;2023-04-06T05:59:09;22.75;;;9.75;;
49842;SDS011;55559;48.898;9.184;2023-04-06T06:01:37;17.75;;;8.88;;
49842;SDS011;55559;48.898;9.184;2023-04-06T06:04:05;25.13;;;9.50;;
49842;SDS011;55559;48.898;9.184;2023-04-06T06:06:35;15.25;;;8.45;;
49842;SDS011;55559;48.898;9.184;2023-04-06T06:09:25;22.90;;;9.00;;
49842;SDS011;55559;48.898;9.184;2023-04-06T06:12:04;21.98;;;9.77;;
49842;SDS011;55559;48.898;9.184;2023-04-06T06:14:33;18.30;;;8.98;;
49842;SDS011;55559;48.898;9.184;2023-04-06T06:17:01;17.45;;;9.70;;
49842;SDS011;55559;48.898;9.184;2023-04-06T06:19:28;21.65;;;10.07;;
49842;SDS011;55559;48.898;9.184;2023-04-06T06:22:00;15.73;;;9.60;;
49842;SDS011;55559;48.898;9.184;2023-04-06T06:24:31;16.77;;;9.32;;
49842;SDS011;55559;48.898;9.184;2023-04-06T06:26:59;22.00;;;9.80;;
49842;SDS011;55559;48.898;9.184;2023-04-06T06:29:30;15.82;;;7.97;;
49842;SDS011;55559;48.898;9.184;2023-04-06T06:31:59;19.65;;;9.00;;
49842;SDS011;55559;48.898;9.184;2023-04-06T06:34:26;13.88;;;8.50;;
49842;SDS011;55559;48.898;9.184;2023-04-06T06:36:57;12.88;;;7.85;;
49842;SDS011;55559;48.898;9.184;2023-04-06T06:39:25;20.83;;;7.55;;
49842;SDS011;55559;48.898;9.184;2023-04-06T06:41:54;17.02;;;8.18;;
49842;SDS011;55559;48.898;9.184;2023-04-06T06:44:41;15.20;;;7.68;;
49842;SDS011;55559;48.898;9.184;2023-04-06T06:47:09;31.85;;;9.90;;
49842;SDS011;55559;48.898;9.184;2023-04-06T06:49:36;15.68;;;8.18;;
49842;SDS011;55559;48.898;9.184;2023-04-06T06:52:04;19.27;;;8.80;;
49842;SDS011;55559;48.898;9.184;2023-04-06T06:54:31;15.25;;;7.88;;
49842;SDS011;55559;48.898;9.184;2023-04-06T06:57:00;21.63;;;8.82;;
49842;SDS011;55559;48.898;9.184;2023-04-06T06:59:28;16.60;;;8.07;;
49842;SDS011;55559;48.898;9.184;2023-04-06T07:01:55;19.73;;;8.70;;
49842;SDS011;55559;48.898;9.184;2023-04-06T07:04:23;20.30;;;8.48;;
49842;SDS011;55559;48.898;9.184;2023-04-06T07:06:51;29.35;;;8.98;;
49842;SDS011;55559;48.898;9.184;2023-04-06T07:09:22;22.90;;;8.70;;
49842;SDS011;55559;48.898;9.184;2023-04-06T07:11:51;15.80;;;8.57;;
49842;SDS011;55559;48.898;9.184;2023-04-06T07:14:20;14.88;;;7.95;;
49842;SDS011;55559;48.898;9.184;2023-04-06T07:16:48;20.73;;;9.68;;
49842;SDS011;55559;48.898;9.184;2023-04-06T07:19:16;20.48;;;8.55;;
49842;SDS011;55559;48.898;9.184;2023-04-06T07:21:44;17.38;;;8.45;;
49842;SDS011;55559;48.898;9.184;2023-04-06T07:24:11;16.00;;;8.38;;
49842;SDS011;55559;48.898;9.184;2023-04-06T07:26:39;14.57;;;7.72;;
49842;SDS011;55559;48.898;9.184;2023-04-06T07:29:07;12.57;;;8.77;;
49842;SDS011;55559;48.898;9.184;2023-04-06T07:31:36;14.45;;;7.97;;
49842;SDS011;55559;48.898;9.184;2023-04-06T07:34:04;21.35;;;8.30;;
49842;SDS011;55559;48.898;9.184;2023-04-06T07:36:31;17.27;;;8.15;;
49842;SDS011;55559;48.898;9.184;2023-04-06T07:38:59;19.23;;;8.90;;
49842;SDS011;55559;48.898;9.184;2023-04-06T07:41:26;13.52;;;7.93;;
49842;SDS011;55559;48.898;9.184;2023-04-06T07:43:55;19.73;;;8.07;;
49842;SDS011;55559;48.898;9.184;2023-04-06T07:46:23;19.33;;;9.00;;
49842;SDS011;55559;48.898;9.184;2023-04-06T07:48:53;22.52;;;9.82;;
49842;SDS011;55559;48.898;9.184;2023-04-06T07:51:21;18.30;;;9.25;;
49842;SDS011;55559;48.898;9.184;2023-04-06T07:53:50;21.67;;;10.70;;
49842;SDS011;55559;48.898;9.184;2023-04-06T07:56:17;30.80;;;15.10;;
49842;SDS011;55559;48.898;9.184;2023-04-06T07:58:46;78.28;;;29.25;;
49842;SDS011;55559;48.898;9.184;2023-04-06T08:01:14;86.45;;;34.65;;
49842;SDS011;55559;48.898;9.184;2023-04-06T08:03:41;38.70;;;20.38;;
49842;SDS011;55559;48.898;9.184;2023-04-06T08:06:10;28.88;;;14.45;;
49842;SDS011;55559;48.898;9.184;2023-04-06T08:08:38;15.35;;;8.63;;
49842;SDS011;55559;48.898;9.184;2023-04-06T08:11:05;15.75;;;8.45;;
49842;SDS011;55559;48.898;9.184;2023-04-06T08:13:33;25.00;;;14.93;;
49842;SDS011;55559;48.898;9.184;2023-04-06T08:16:01;25.58;;;11.77;;
49842;SDS011;55559;48.898;9.184;2023-04-06T08:18:28;12.40;;;7.85;;
49842;SDS011;55559;48.898;9.184;2023-04-06T08:20:56;17.98;;;8.65;;
49842;SDS011;55559;48.898;9.184;2023-04-06T08:23:25;13.30;;;8.32;;
49842;SDS011;55559;48.898;9.184;2023-04-06T08:25:53;14.32;;;7.55;;
49842;SDS011;55559;48.898;9.184;2023-04-06T08:28:21;13.57;;;8.43;;
49842;SDS011;55559;48.898;9.184;2023-04-06T08:30:49;15.18;;;7.93;;
49842;SDS011;55559;48.898;9.184;2023-04-06T08:33:16;20.13;;;8.25;;
49842;SDS011;55559;48.898;9.184;2023-04-06T08:35:44;18.92;;;7.63;;
49842;SDS011;55559;48.898;9.184;2023-04-06T08:38:11;17.83;;;8.45;;
49842;SDS011;55559;48.898;9.184;2023-04-06T08:40:40;18.45;;;7.35;;
49842;SDS011;55559;48.898;9.184;2023-04-06T08:43:13;13.80;;;7.05;;
49842;SDS011;55559;48.898;9.184;2023-04-06T08:48:11;13.52;;;7.53;;
49842;SDS011;55559;48.898;9.184;2023-04-06T08:50:39;17.90;;;7.90;;
49842;SDS011;55559;48.898;9.184;2023-04-06T08:53:06;12.27;;;7.88;;
49842;SDS011;55559;48.898;9.184;2023-04-06T08:55:34;14.60;;;6.47;;
49842;SDS011;55559;48.898;9.184;2023-04-06T08:58:04;11.23;;;6.82;;
49842;SDS011;55559;48.898;9.184;2023-04-06T09:00:36;17.65;;;6.90;;
49842;SDS011;55559;48.898;9.184;2023-04-06T09:03:05;10.77;;;6.88;;
49842;SDS011;55559;48.898;9.184;2023-04-06T09:05:34;13.05;;;7.00;;
49842;SDS011;55559;48.898;9.184;2023-04-06T09:08:02;12.30;;;6.57;;
49842;SDS011;55559;48.898;9.184;2023-04-06T09:10:30;13.38;;;6.53;;
49842;SDS011;55559;48.898;9.184;2023-04-06T09:13:04;8.05;;;5.22;;
49842;SDS011;55559;48.898;9.184;2023-04-06T09:15:32;13.32;;;7.82;;
49842;SDS011;55559;48.898;9.184;2023-04-06T09:18:00;18.80;;;6.85;;
49842;SDS011;55559;48.898;9.184;2023-04-06T09:20:28;10.25;;;5.50;;
49842;SDS011;55559;48.898;9.184;2023-04-06T09:22:55;8.45;;;5.80;;
49842;SDS011;55559;48.898;9.184;2023-04-06T09:25:24;14.98;;;6.30;;
49842;SDS011;55559;48.898;9.184;2023-04-06T09:27:58;13.07;;;6.60;;
49842;SDS011;55559;48.898;9.184;2023-04-06T09:30:30;7.10;;;5.20;;
49842;SDS011;55559;48.898;9.184;2023-04-06T09:32:58;7.97;;;5.80;;
49842;SDS011;55559;48.898;9.184;2023-04-06T09:35:25;15.02;;;6.32;;
49842;SDS011;55559;48.898;9.184;2023-04-06T09:37:55;10.38;;;6.43;;
49842;SDS011;55559;48.898;9.184;2023-04-06T09:40:23;9.32;;;5.60;;
49842;SDS011;55559;48.898;9.184;2023-04-06T09:42:50;10.00;;;5.47;;
49842;SDS011;55559;48.898;9.184;2023-04-06T09:45:19;9.32;;;5.40;;
49842;SDS011;55559;48.898;9.184;2023-04-06T09:47:49;11.98;;;6.00;;
49842;SDS011;55559;48.898;9.184;2023-04-06T09:50:19;10.88;;;5.70;;
49842;SDS011;55559;48.898;9.184;2023-04-06T09:52:47;9.57;;;5.72;;
49842;SDS011;55559;48.898;9.184;2023-04-06T09:55:17;12.25;;;6.32;;
49842;SDS011;55559;48.898;9.184;2023-04-06T09:57:53;7.75;;;4.95;;
49842;SDS011;55559;48.898;9.184;2023-04-06T10:00:25;7.65;;;4.75;;
49842;SDS011;55559;48.898;9.184;2023-04-06T10:02:56;13.02;;;5.63;;
49842;SDS011;55559;48.898;9.184;2023-04-06T10:05:30;8.98;;;5.07;;
49842;SDS011;55559;48.898;9.184;2023-04-06T10:08:05;14.95;;;6.82;;
49842;SDS011;55559;48.898;9.184;2023-04-06T10:10:35;9.98;;;6.88;;
49842;SDS011;55559;48.898;9.184;2023-04-06T10:13:03;10.10;;;6.43;;
49842;SDS011;55559;48.898;9.184;2023-04-06T10:15:31;8.38;;;6.07;;
49842;SDS011;55559;48.898;9.184;2023-04-06T10:18:01;8.25;;;4.78;;
49842;SDS011;55559;48.898;9.184;2023-04-06T10:20:34;7.32;;;4.70;;
49842;SDS011;55559;48.898;9.184;2023-04-06T10:23:08;10.38;;;5.47;;
49842;SDS011;55559;48.898;9.184;2023-04-06T10:25:51;14.38;;;5.70;;
49842;SDS011;55559;48.898;9.184;2023-04-06T10:28:20;11.95;;;6.35;;
49842;SDS011;55559;48.898;9.184;2023-04-06T10:30:47;9.35;;;5.85;;
49842;SDS011;55559;48.898;9.184;2023-04-06T10:33:17;9.80;;;5.88;;
49842;SDS011;55559;48.898;9.184;2023-04-06T10:35:46;9.93;;;6.60;;
49842;SDS011;55559;48.898;9.184;2023-04-06T10:38:14;10.13;;;6.45;;
49842;SDS011;55559;48.898;9.184;2023-04-06T10:40:46;12.73;;;6.55;;
49842;SDS011;55559;48.898;9.184;2023-04-06T10:43:18;10.15;;;7.13;;
49842;SDS011;55559;48.898;9.184;2023-04-06T10:48:23;8.93;;;6.30;;
49842;SDS011;55559;48.898;9.184;2023-04-06T10:50:52;17.48;;;7.05;;
49842;SDS011;55559;48.898;9.184;2023-04-06T10:53:21;11.70;;;6.50;;
49842;SDS011;55559;48.898;9.184;2023-04-06T10:55:49;14.18;;;7.32;;
49842;SDS011;55559;48.898;9.184;2023-04-06T10:58:17;9.60;;;6.50;;
49842;SDS011;55559;48.898;9.184;2023-04-06T11:00:46;12.80;;;6.93;;
49842;SDS011;55559;48.898;9.184;2023-04-06T11:03:14;8.25;;;6.38;;
49842;SDS011;55559;48.898;9.184;2023-04-06T11:05:44;10.73;;;6.07;;
49842;SDS011;55559;48.898;9.184;2023-04-06T11:08:21;11.07;;;6.95;;
49842;SDS011;55559;48.898;9.184;2023-04-06T11:10:50;9.27;;;5.95;;
49842;SDS011;55559;48.898;9.184;2023-04-06T11:13:17;12.18;;;7.38;;
49842;SDS011;55559;48.898;9.184;2023-04-06T11:15:45;8.98;;;6.75;;
49842;SDS011;55559;48.898;9.184;2023-04-06T11:18:17;11.27;;;7.05;;
49842;SDS011;55559;48.898;9.184;2023-04-06T11:20:48;10.32;;;6.82;;
49842;SDS011;55559;48.898;9.184;2023-04-06T11:23:22;10.98;;;7.13;;
49842;SDS011;55559;48.898;9.184;2023-04-06T11:25:51;13.80;;;7.45;;
49842;SDS011;55559;48.898;9.184;2023-04-06T11:28:19;11.93;;;7.55;;
49842;SDS011;55559;48.898;9.184;2023-04-06T11:30:47;10.48;;;6.57;;
49842;SDS011;55559;48.898;9.184;2023-04-06T11:33:19;12.13;;;7.05;;
49842;SDS011;55559;48.898;9.184;2023-04-06T11:35:49;11.20;;;7.25;;
49842;SDS011;55559;48.898;9.184;2023-04-06T11:38:17;11.48;;;6.80;;
49842;SDS011;55559;48.898;9.184;2023-04-06T11:40:46;11.38;;;7.18;;
49842;SDS011;55559;48.898;9.184;2023-04-06T11:43:13;12.82;;;7.13;;
49842;SDS011;55559;48.898;9.184;2023-04-06T11:45:44;10.57;;;7.28;;
49842;SDS011;55559;48.898;9.184;2023-04-06T11:48:18;10.98;;;6.80;;
49842;SDS011;55559;48.898;9.184;2023-04-06T11:50:47;10.27;;;6.25;;
49842;SDS011;55559;48.898;9.184;2023-04-06T11:53:16;18.30;;;8.13;;
49842;SDS011;55559;48.898;9.184;2023-04-06T11:55:44;9.70;;;6.30;;
49842;SDS011;55559;48.898;9.184;2023-04-06T11:58:12;12.20;;;6.55;;
49842;SDS011;55559;48.898;9.184;2023-04-06T12:00:40;10.82;;;6.75;;
49842;SDS011;55559;48.898;9.184;2023-04-06T12:03:10;12.38;;;7.25;;
49842;SDS011;55559;48.898;9.184;2023-04-06T12:05:38;12.63;;;8.02;;
49842;SDS011;55559;48.898;9.184;2023-04-06T12:08:06;11.80;;;7.53;;
49842;SDS011;55559;48.898;9.184;2023-04-06T12:10:35;17.38;;;7.55;;
49842;SDS011;55559;48.898;9.184;2023-04-06T12:13:03;17.10;;;8.00;;
49842;SDS011;55559;48.898;9.184;2023-04-06T12:15:30;9.50;;;7.22;;
49842;SDS011;55559;48.898;9.184;2023-04-06T12:17:58;10.88;;;6.85;;
49842;SDS011;55559;48.898;9.184;2023-04-06T12:20:26;10.75;;;6.97;;
49842;SDS011;55559;48.898;9.184;2023-04-06T12:22:53;11.38;;;7.53;;
49842;SDS011;55559;48.898;9.184;2023-04-06T12:25:21;10.82;;;7.93;;
49842;SDS011;55559;48.898;9.184;2023-04-06T12:27:50;13.98;;;7.93;;
49842;SDS011;55559;48.898;9.184;2023-04-06T12:30:17;10.45;;;7.10;;
49842;SDS011;55559;48.898;9.184;2023-04-06T12:32:45;12.15;;;8.07;;
49842;SDS011;55559;48.898;9.184;2023-04-06T12:35:13;13.00;;;7.03;;
49842;SDS011;55559;48.898;9.184;2023-04-06T12:37:41;13.82;;;7.03;;
49842;SDS011;55559;48.898;9.184;2023-04-06T12:40:09;12.38;;;6.78;;
49842;SDS011;55559;48.898;9.184;2023-04-06T12:42:38;11.38;;;6.93;;
49842;SDS011;55559;48.898;9.184;2023-04-06T12:45:09;10.65;;;6.63;;
49842;SDS011;55559;48.898;9.184;2023-04-06T12:47:37;10.98;;;5.53;;
49842;SDS011;55559;48.898;9.184;2023-04-06T12:50:05;9.02;;;5.88;;
49842;SDS011;55559;48.898;9.184;2023-04-06T12:52:33;10.02;;;4.85;;
49842;SDS011;55559;48.898;9.184;2023-04-06T12:55:01;9.48;;;5.97;;
49842;SDS011;55559;48.898;9.184;2023-04-06T12:57:30;9.65;;;5.55;;
49842;SDS011;55559;48.898;9.184;2023-04-06T12:59:58;12.68;;;6.18;;
49842;SDS011;55559;48.898;9.184;2023-04-06T13:02:27;11.07;;;6.38;;
49842;SDS011;55559;48.898;9.184;2023-04-06T13:04:54;11.43;;;6.13;;
49842;SDS011;55559;48.898;9.184;2023-04-06T13:07:22;10.05;;;6.53;;
49842;SDS011;55559;48.898;9.184;2023-04-06T13:09:50;7.50;;;5.88;;
49842;SDS011;55559;48.898;9.184;2023-04-06T13:12:19;8.82;;;6.90;;
49842;SDS011;55559;48.898;9.184;2023-04-06T13:14:46;10.63;;;5.80;;
49842;SDS011;55559;48.898;9.184;2023-04-06T13:17:18;17.17;;;7.22;;
49842;SDS011;55559;48.898;9.184;2023-04-06T13:19:48;11.57;;;6.95;;
49842;SDS011;55559;48.898;9.184;2023-04-06T13:22:15;14.52;;;6.20;;
49842;SDS011;55559;48.898;9.184;2023-04-06T13:24:43;13.90;;;6.95;;
49842;SDS011;55559;48.898;9.184;2023-04-06T13:27:10;10.35;;;6.30;;
49842;SDS011;55559;48.898;9.184;2023-04-06T13:29:38;12.38;;;6.70;;
49842;SDS011;55559;48.898;9.184;2023-04-06T13:32:05;10.15;;;5.80;;
49842;SDS011;55559;48.898;9.184;2023-04-06T13:34:35;8.40;;;6.07;;
49842;SDS011;55559;48.898;9.184;2023-04-06T13:37:04;11.38;;;6.50;;
49842;SDS011;55559;48.898;9.184;2023-04-06T13:39:31;9.95;;;5.78;;
49842;SDS011;55559;48.898;9.184;2023-04-06T13:41:59;12.57;;;6.15;;
49842;SDS011;55559;48.898;9.184;2023-04-06T13:44:27;8.15;;;6.45;;
49842;SDS011;55559;48.898;9.184;2023-04-06T13:46:55;18.80;;;6.68;;
49842;SDS011;55559;48.898;9.184;2023-04-06T13:49:23;9.00;;;5.38;;
49842;SDS011;55559;48.898;9.184;2023-04-06T13:51:51;10.07;;;5.95;;
49842;SDS011;55559;48.898;9.184;2023-04-06T13:54:20;8.93;;;4.40;;
49842;SDS011;55559;48.898;9.184;2023-04-06T13:56:47;7.65;;;4.43;;
49842;SDS011;55559;48.898;9.184;2023-04-06T13:59:15;7.40;;;4.40;;
49842;SDS011;55559;48.898;9.184;2023-04-06T14:01:42;8.77;;;4.13;;
49842;SDS011;55559;48.898;9.184;2023-04-06T14:04:09;9.32;;;5.13;;
49842;SDS011;55559;48.898;9.184;2023-04-06T14:06:37;8.35;;;5.88;;
49842;SDS011;55559;48.898;9.184;2023-04-06T14:09:05;7.88;;;6.07;;
49842;SDS011;55559;48.898;9.184;2023-04-06T14:11:34;9.73;;;5.35;;
49842;SDS011;55559;48.898;9.184;2023-04-06T14:14:02;9.73;;;5.35;;
49842;SDS011;55559;48.898;9.184;2023-04-06T14:16:29;8.68;;;6.00;;
49842;SDS011;55559;48.898;9.184;2023-04-06T14:18:57;7.65;;;4.35;;
49842;SDS011;55559;48.898;9.184;2023-04-06T14:21:24;10.60;;;5.30;;
49842;SDS011;55559;48.898;9.184;2023-04-06T14:23:52;8.13;;;5.38;;
49842;SDS011;55559;48.898;9.184;2023-04-06T14:26:20;10.10;;;4.97;;
49842;SDS011;55559;48.898;9.184;2023-04-06T14:28:49;8.18;;;5.13;;
49842;SDS011;55559;48.898;9.184;2023-04-06T14:31:17;7.32;;;5.07;;
49842;SDS011;55559;48.898;9.184;2023-04-06T14:33:44;10.95;;;5.20;;
49842;SDS011;55559;48.898;9.184;2023-04-06T14:36:12;9.05;;;6.03;;
49842;SDS011;55559;48.898;9.184;2023-04-06T14:38:40;8.45;;;5.05;;
49842;SDS011;55559;48.898;9.184;2023-04-06T14:41:14;8.43;;;4.13;;
49842;SDS011;55559;48.898;9.184;2023-04-06T14:43:42;8.30;;;4.75;;
49842;SDS011;55559;48.898;9.184;2023-04-06T14:46:12;6.55;;;4.57;;
49842;SDS011;55559;48.898;9.184;2023-04-06T14:48:41;10.43;;;5.13;;
49842;SDS011;55559;48.898;9.184;2023-04-06T14:51:08;8.32;;;4.63;;
49842;SDS011;55559;48.898;9.184;2023-04-06T14:53:36;6.30;;;4.03;;